createdAt,value
2019-03-05T00:03:43.666Z,71.12
2019-03-05T00:07:49.130Z,70.81
2019-03-05T00:11:55.953Z,70.87
2019-03-05T00:16:01.462Z,70.94
2019-03-05T00:20:10.150Z,70.92
2019-03-05T00:25:00.927Z,70.30
2019-03-05T00:30:09.292Z,70.57
2019-03-05T00:35:14.966Z,70.64
2019-03-05T00:40:05.675Z,70.20
2019-03-05T00:44:53.468Z,70.04
2019-03-05T00:49:45.434Z,69.95
2019-03-05T00:54:24.464Z,69.46
2019-03-05T00:59:17.077Z,69.63
2019-03-05T01:04:10.215Z,69.29
2019-03-05T01:08:15.631Z,69.54
2019-03-05T01:12:21.341Z,69.35
2019-03-05T01:16:31.391Z,69.11
2019-03-05T01:20:36.838Z,68.76
2019-03-05T01:24:42.761Z,67.64
2019-03-05T01:28:48.543Z,66.39
2019-03-05T01:32:59.579Z,63.99
2019-03-05T01:37:05.403Z,65.30
2019-03-05T01:41:11.309Z,66.54
2019-03-05T01:45:17.302Z,68.33
2019-03-05T01:49:22.731Z,67.94
2019-03-05T01:53:28.145Z,67.71
2019-03-05T01:57:33.600Z,67.28
2019-03-05T02:01:39.021Z,67.24
2019-03-05T02:05:44.744Z,66.80
2019-03-05T02:09:50.250Z,67.21
2019-03-05T02:13:55.731Z,67.70
2019-03-05T02:18:01.086Z,68.82
2019-03-05T02:22:08.953Z,69.35
2019-03-05T02:27:10.836Z,69.60
2019-03-05T02:32:04.919Z,70.08
2019-03-05T02:36:50.023Z,70.54
2019-03-05T02:41:56.771Z,70.56
2019-03-05T02:47:00.446Z,70.96
2019-03-05T02:51:23.515Z,71.07
2019-03-05T02:56:28.769Z,71.47
2019-03-05T03:00:59.265Z,70.93
2019-03-05T03:05:27.039Z,71.33
2019-03-05T03:10:18.197Z,71.15
2019-03-05T03:14:23.637Z,70.65
2019-03-05T03:18:29.085Z,70.46
2019-03-05T03:22:34.542Z,70.77
2019-03-05T03:26:39.874Z,71.36
2019-03-05T03:30:45.560Z,71.77
2019-03-05T03:34:51.033Z,71.91
2019-03-05T03:38:56.513Z,71.69
2019-03-05T03:43:01.803Z,72.17
2019-03-05T03:47:07.483Z,71.95
2019-03-05T03:51:12.960Z,71.71
2019-03-05T03:55:18.757Z,71.96
2019-03-05T03:59:24.181Z,71.73
2019-03-05T04:03:29.606Z,72.30
2019-03-05T04:07:35.199Z,71.68
2019-03-05T04:11:40.634Z,72.24
2019-03-05T04:15:46.642Z,72.02
2019-03-05T04:19:52.049Z,72.27
2019-03-05T04:23:57.522Z,72.60
2019-03-05T04:28:02.932Z,73.55
2019-03-05T04:32:08.432Z,72.89
2019-03-05T04:36:13.858Z,72.79
2019-03-05T04:40:19.315Z,72.91
2019-03-05T04:44:31.095Z,72.59
2019-03-05T04:48:36.713Z,72.78
2019-03-05T04:52:42.135Z,72.03
2019-03-05T04:56:47.622Z,72.29
2019-03-05T05:00:53.020Z,72.56
2019-03-05T05:04:58.480Z,71.95
2019-03-05T05:09:04.775Z,71.77
2019-03-05T05:13:10.266Z,71.49
2019-03-05T05:17:15.710Z,71.14
2019-03-05T05:21:21.151Z,71.72
2019-03-05T05:25:26.685Z,71.28
2019-03-05T05:29:32.365Z,71.17
2019-03-05T05:33:37.821Z,71.21
2019-03-05T05:37:43.222Z,71.38
2019-03-05T05:41:48.654Z,70.62
2019-03-05T05:45:54.951Z,70.32
2019-03-05T05:50:00.943Z,70.52
2019-03-05T05:54:06.386Z,70.67
2019-03-05T05:58:12.078Z,70.69
2019-03-05T06:02:17.746Z,71.15
2019-03-05T06:06:23.187Z,71.84
2019-03-05T06:10:28.612Z,72.16
2019-03-05T06:14:34.120Z,72.32
2019-03-05T06:18:39.456Z,72.40
2019-03-05T06:22:44.891Z,72.45
2019-03-05T06:26:50.356Z,73.02
2019-03-05T06:30:55.791Z,73.59
2019-03-05T06:35:01.189Z,73.83
2019-03-05T06:39:07.308Z,74.09
2019-03-05T06:43:12.765Z,73.89
2019-03-05T06:47:18.211Z,74.17
2019-03-05T06:51:23.686Z,74.89
2019-03-05T06:55:29.346Z,75.19
2019-03-05T06:59:34.834Z,74.87
2019-03-05T07:03:40.334Z,74.80
2019-03-05T07:07:46.224Z,75.58
2019-03-05T07:12:17.394Z,76.53
2019-03-05T07:16:36.386Z,77.93
2019-03-05T07:21:34.976Z,79.07
2019-03-05T07:25:40.754Z,79.49
2019-03-05T07:29:47.975Z,79.88
2019-03-05T07:33:53.366Z,79.98
2019-03-05T07:37:59.570Z,80.66
2019-03-05T07:42:04.950Z,81.54
2019-03-05T07:46:10.728Z,82.18
2019-03-05T07:50:16.209Z,82.77
2019-03-05T07:54:21.658Z,82.75
2019-03-05T07:58:27.192Z,82.93
2019-03-05T08:02:32.897Z,83.08
2019-03-05T08:06:38.398Z,83.33
2019-03-05T08:10:43.953Z,82.75
2019-03-05T08:15:00.410Z,82.31
2019-03-05T08:19:06.250Z,81.81
2019-03-05T08:23:11.788Z,81.55
2019-03-05T08:27:17.243Z,81.45
2019-03-05T08:31:22.936Z,80.79
2019-03-05T08:35:28.449Z,80.51
2019-03-05T08:39:34.085Z,80.18
2019-03-05T08:43:39.593Z,79.68
2019-03-05T08:47:45.063Z,78.96
2019-03-05T08:51:50.513Z,79.44
2019-03-05T08:55:56.067Z,78.69
2019-03-05T09:00:01.422Z,78.18
2019-03-05T09:04:06.958Z,78.50
2019-03-05T09:08:12.731Z,78.77
2019-03-05T09:12:18.498Z,78.26
2019-03-05T09:16:24.044Z,78.05
2019-03-05T09:20:29.596Z,78.21
2019-03-05T09:24:35.037Z,77.99
2019-03-05T09:28:40.770Z,77.85
2019-03-05T09:32:46.223Z,76.93
2019-03-05T09:36:52.257Z,76.64
2019-03-05T09:40:57.714Z,76.79
2019-03-05T09:45:03.162Z,75.62
2019-03-05T09:49:08.610Z,75.20
2019-03-05T09:53:14.054Z,75.04
2019-03-05T09:57:19.669Z,74.73
2019-03-05T10:01:25.144Z,75.03
2019-03-05T10:05:30.829Z,75.39
2019-03-05T10:09:36.268Z,75.69
2019-03-05T10:13:41.870Z,75.00
2019-03-05T10:17:49.932Z,75.70
2019-03-05T10:21:54.807Z,74.54
2019-03-05T10:26:00.249Z,73.25
2019-03-05T10:30:24.334Z,72.58
2019-03-05T10:34:23.635Z,69.87
2019-03-05T10:38:29.113Z,70.22
2019-03-05T10:42:35.113Z,68.61
2019-03-05T10:46:40.644Z,68.86
2019-03-05T10:50:46.653Z,69.26
2019-03-05T10:54:52.097Z,67.71
2019-03-05T10:58:57.576Z,69.48
2019-03-05T11:03:03.595Z,67.42
2019-03-05T11:07:09.174Z,66.53
2019-03-05T11:11:14.935Z,65.59
2019-03-05T11:15:25.619Z,66.50
2019-03-05T11:19:31.125Z,64.32
2019-03-05T11:23:36.559Z,62.62
2019-03-05T11:27:42.494Z,63.11
2019-03-05T11:31:48.002Z,63.39
2019-03-05T11:35:53.546Z,62.38
2019-03-05T11:39:59.093Z,63.25
2019-03-05T11:44:04.863Z,62.31
2019-03-05T11:48:10.519Z,62.13
2019-03-05T11:52:15.992Z,60.47
2019-03-05T11:56:21.444Z,59.28
2019-03-05T12:00:49.790Z,56.67
2019-03-05T12:04:55.549Z,56.97
2019-03-05T12:09:00.949Z,58.10
2019-03-05T12:13:06.700Z,55.93
2019-03-05T12:17:12.146Z,55.63
2019-03-05T12:21:17.587Z,56.87
2019-03-05T12:25:23.802Z,56.44
2019-03-05T12:29:29.437Z,55.28
2019-03-05T12:33:34.907Z,56.69
2019-03-05T12:37:40.364Z,58.96
2019-03-05T12:41:45.841Z,57.23
2019-03-05T12:45:51.551Z,58.83
2019-03-05T12:49:56.945Z,62.96
2019-03-05T12:54:03.209Z,65.02
2019-03-05T12:58:08.658Z,66.21
2019-03-05T13:02:14.117Z,66.82
2019-03-05T13:06:19.574Z,66.16
2019-03-05T13:10:25.132Z,62.12
2019-03-05T13:14:30.565Z,60.83
2019-03-05T13:18:36.007Z,58.09
2019-03-05T13:22:42.588Z,54.76
2019-03-05T13:26:48.015Z,55.72
2019-03-05T13:30:53.696Z,56.80
2019-03-05T13:34:59.678Z,55.47
2019-03-05T13:39:06.300Z,55.07
2019-03-05T13:43:12.098Z,56.19
2019-03-05T13:47:17.387Z,56.47
2019-03-05T13:52:16.470Z,55.08
2019-03-05T13:57:22.371Z,56.01
2019-03-05T14:01:28.559Z,53.09
2019-03-05T14:07:01.027Z,52.51
2019-03-05T14:11:06.615Z,53.16
2019-03-05T14:15:12.566Z,49.95
2019-03-05T14:19:18.061Z,49.95
2019-03-05T14:23:28.094Z,51.07
2019-03-05T14:27:33.561Z,50.79
2019-03-05T14:31:39.011Z,49.49
2019-03-05T14:35:47.530Z,50.71
2019-03-05T14:39:52.786Z,49.11
2019-03-05T14:43:58.490Z,50.22
2019-03-05T14:48:04.628Z,50.28
2019-03-05T14:52:11.961Z,51.52
2019-03-05T14:56:19.004Z,50.64
2019-03-05T15:00:24.758Z,52.64
2019-03-05T15:04:30.445Z,47.83
2019-03-05T15:08:38.949Z,46.19
2019-03-05T15:12:48.772Z,48.59
2019-03-05T15:16:53.406Z,50.62
2019-03-05T15:20:58.948Z,50.33
2019-03-05T15:25:04.582Z,46.84
2019-03-05T15:29:10.022Z,47.75
2019-03-05T15:33:15.469Z,48.09
2019-03-05T15:37:20.951Z,48.45
2019-03-05T15:41:26.610Z,46.29
2019-03-05T15:45:32.088Z,46.54
2019-03-05T15:49:37.451Z,48.96
2019-03-05T15:57:48.719Z,48.94
2019-03-05T16:01:56.109Z,48.91
2019-03-05T16:06:01.817Z,49.48
2019-03-05T16:10:08.071Z,49.36
2019-03-05T16:14:13.414Z,49.56
2019-03-05T16:18:19.548Z,48.60
2019-03-05T16:22:25.096Z,49.11
2019-03-05T16:26:30.777Z,49.19
2019-03-05T16:31:07.692Z,49.31
2019-03-05T16:35:45.525Z,49.32
2019-03-05T16:40:05.232Z,49.63
2019-03-05T16:44:15.749Z,49.91
2019-03-05T16:48:45.945Z,50.55
2019-03-05T16:53:22.228Z,50.79
2019-03-05T16:57:53.302Z,51.08
2019-03-05T17:02:20.842Z,52.17
2019-03-05T17:06:37.255Z,52.86
2019-03-05T17:10:59.423Z,52.38
2019-03-05T17:15:05.160Z,54.20
2019-03-05T17:19:10.645Z,53.91
2019-03-05T17:23:16.091Z,54.34
2019-03-05T17:27:21.515Z,55.07
2019-03-05T17:31:26.998Z,57.18
2019-03-05T17:35:32.454Z,56.42
2019-03-05T17:39:37.888Z,57.95
2019-03-05T17:43:43.593Z,57.56
2019-03-05T17:47:49.289Z,58.11
2019-03-05T17:51:55.012Z,58.71
2019-03-05T17:56:00.668Z,58.29
2019-03-05T18:00:07.490Z,57.85
2019-03-05T18:04:12.857Z,57.09
2019-03-05T18:08:18.400Z,57.57
2019-03-05T18:12:26.672Z,58.18
2019-03-05T18:16:32.822Z,58.61
2019-03-05T18:20:38.309Z,57.54
2019-03-05T18:24:43.895Z,57.04
2019-03-05T18:28:49.375Z,58.51
2019-03-05T18:32:55.157Z,58.05
2019-03-05T18:37:00.617Z,58.87
2019-03-05T18:41:06.109Z,59.63
2019-03-05T18:45:16.212Z,60.81
2019-03-05T18:49:21.663Z,61.05
2019-03-05T18:53:27.138Z,62.08
2019-03-05T18:57:32.545Z,62.03
2019-03-05T19:01:38.607Z,63.29
2019-03-05T19:05:44.107Z,63.74
2019-03-05T19:09:49.888Z,64.00
2019-03-05T19:13:55.314Z,64.67
2019-03-05T19:18:00.827Z,66.08
2019-03-05T19:22:06.481Z,66.44
2019-03-05T19:26:14.851Z,66.06
2019-03-05T19:30:26.631Z,66.85
2019-03-05T19:34:49.046Z,67.34
2019-03-05T19:38:58.609Z,68.62
2019-03-05T19:43:11.457Z,68.32
2019-03-05T19:47:27.846Z,69.52
2019-03-05T19:51:33.271Z,69.05
2019-03-05T19:55:38.749Z,69.74
2019-03-05T19:59:44.393Z,68.77
2019-03-05T20:03:49.961Z,69.24
2019-03-05T20:07:55.652Z,70.35
2019-03-05T20:12:01.186Z,69.79
2019-03-05T20:16:07.757Z,71.24
2019-03-05T20:20:14.001Z,71.12
2019-03-05T20:24:19.441Z,70.75
2019-03-05T20:28:25.243Z,71.58
2019-03-05T20:32:30.995Z,71.83
2019-03-05T20:36:36.579Z,71.83
2019-03-05T20:40:42.134Z,72.81
2019-03-05T20:44:47.670Z,73.09
2019-03-05T20:48:53.129Z,72.89
2019-03-05T20:52:58.575Z,72.49
2019-03-05T20:57:28.124Z,73.03
2019-03-05T21:01:33.603Z,74.43
2019-03-05T21:05:41.052Z,74.28
2019-03-05T21:09:46.519Z,73.74
2019-03-05T21:13:51.970Z,74.62
2019-03-05T21:17:57.546Z,74.42
2019-03-05T21:22:03.037Z,74.35
2019-03-05T21:26:08.450Z,76.32
2019-03-05T21:30:17.287Z,75.66
2019-03-05T21:34:22.805Z,75.37
2019-03-05T21:38:28.389Z,75.81
2019-03-05T21:42:33.929Z,75.69
2019-03-05T21:46:39.498Z,76.40
2019-03-05T21:50:45.656Z,75.99
2019-03-05T21:54:51.511Z,76.09
2019-03-05T21:58:56.940Z,76.61
2019-03-05T22:03:02.828Z,76.13
2019-03-05T22:07:08.393Z,76.40
2019-03-05T22:11:13.823Z,76.32
2019-03-05T22:15:20.290Z,76.53
2019-03-05T22:19:25.814Z,76.40
2019-03-05T22:23:31.329Z,76.36
2019-03-05T22:27:36.743Z,76.65
2019-03-05T22:31:42.157Z,76.28
2019-03-05T22:35:47.617Z,76.01
2019-03-05T22:39:53.350Z,76.07
2019-03-05T22:43:58.820Z,75.99
2019-03-05T22:48:04.380Z,76.51
2019-03-05T22:52:09.833Z,76.10
2019-03-05T22:56:15.321Z,76.29
2019-03-05T23:01:16.607Z,75.91
2019-03-05T23:05:22.820Z,75.55
2019-03-05T23:09:28.580Z,75.40
2019-03-05T23:13:35.103Z,76.09
2019-03-05T23:17:40.867Z,75.33
2019-03-05T23:21:46.407Z,76.06
2019-03-05T23:25:51.889Z,75.87
2019-03-05T23:29:57.271Z,76.13
2019-03-05T23:34:02.864Z,76.28
2019-03-05T23:38:08.414Z,75.82
2019-03-05T23:42:13.872Z,75.60
2019-03-05T23:46:19.303Z,76.33
2019-03-05T23:50:24.787Z,75.59
2019-03-05T23:54:30.236Z,75.72
2019-03-05T23:58:35.641Z,75.45
